sensor_id;sensor_type;location;lat;lon;timestamp;pressure;altitude;pressure_sealevel;temperature;humidity
31285;BME280;56605;51.516;6.742;2023-04-30T00:00:37;102130.41;;;7.19;100.00
31285;BME280;56605;51.516;6.742;2023-04-30T00:03:03;102129.97;;;7.25;100.00
31285;BME280;56605;51.516;6.742;2023-04-30T00:05:28;102123.72;;;7.13;100.00
31285;BME280;56605;51.516;6.742;2023-04-30T00:07:54;102127.63;;;7.20;100.00
31285;BME280;56605;51.516;6.742;2023-04-30T00:10:19;102120.63;;;7.06;100.00
31285;BME280;56605;51.516;6.742;2023-04-30T00:12:44;102127.00;;;7.17;100.00
31285;BME280;56605;51.516;6.742;2023-04-30T00:15:10;102129.31;;;7.21;100.00
31285;BME280;56605;51.516;6.742;2023-04-30T00:17:36;102139.69;;;6.87;100.00
31285;BME280;56605;51.516;6.742;2023-04-30T00:20:01;102144.41;;;6.70;100.00
31285;BME280;56605;51.516;6.742;2023-04-30T00:22:27;102142.25;;;6.76;100.00
31285;BME280;56605;51.516;6.742;2023-04-30T00:24:52;102142.03;;;6.92;100.00
31285;BME280;56605;51.516;6.742;2023-04-30T00:27:17;102142.81;;;6.81;100.00
31285;BME280;56605;51.516;6.742;2023-04-30T00:29:42;102145.47;;;6.81;100.00
31285;BME280;56605;51.516;6.742;2023-04-30T00:32:08;102145.25;;;6.84;100.00
31285;BME280;56605;51.516;6.742;2023-04-30T00:34:33;102146.72;;;6.88;100.00
31285;BME280;56605;51.516;6.742;2023-04-30T00:36:58;102144.16;;;6.87;100.00
31285;BME280;56605;51.516;6.742;2023-04-30T00:39:23;102138.34;;;6.68;100.00
31285;BME280;56605;51.516;6.742;2023-04-30T00:41:49;102150.22;;;6.76;100.00
31285;BME280;56605;51.516;6.742;2023-04-30T00:44:14;102148.75;;;6.71;100.00
31285;BME280;56605;51.516;6.742;2023-04-30T00:46:39;102144.94;;;6.50;100.00
31285;BME280;56605;51.516;6.742;2023-04-30T00:49:05;102150.66;;;6.56;100.00
31285;BME280;56605;51.516;6.742;2023-04-30T00:51:31;102146.84;;;6.60;100.00
31285;BME280;56605;51.516;6.742;2023-04-30T00:53:59;102141.53;;;6.60;100.00
31285;BME280;56605;51.516;6.742;2023-04-30T00:56:25;102142.50;;;6.59;100.00
31285;BME280;56605;51.516;6.742;2023-04-30T00:58:51;102142.19;;;6.51;100.00
31285;BME280;56605;51.516;6.742;2023-04-30T01:01:25;102143.44;;;6.32;100.00
31285;BME280;56605;51.516;6.742;2023-04-30T01:03:51;102141.00;;;5.89;100.00
31285;BME280;56605;51.516;6.742;2023-04-30T01:06:16;102141.03;;;6.02;100.00
31285;BME280;56605;51.516;6.742;2023-04-30T01:08:42;102136.78;;;5.99;100.00
31285;BME280;56605;51.516;6.742;2023-04-30T01:11:22;102143.44;;;5.79;100.00
31285;BME280;56605;51.516;6.742;2023-04-30T01:14:06;102143.97;;;5.97;100.00
31285;BME280;56605;51.516;6.742;2023-04-30T01:16:49;102141.44;;;5.95;100.00
31285;BME280;56605;51.516;6.742;2023-04-30T01:19:33;102144.09;;;5.95;100.00
31285;BME280;56605;51.516;6.742;2023-04-30T01:22:03;102140.81;;;5.92;100.00
31285;BME280;56605;51.516;6.742;2023-04-30T01:24:42;102140.59;;;5.67;100.00
31285;BME280;56605;51.516;6.742;2023-04-30T01:29:55;102141.59;;;5.79;100.00
31285;BME280;56605;51.516;6.742;2023-04-30T01:32:21;102140.59;;;5.95;100.00
31285;BME280;56605;51.516;6.742;2023-04-30T01:34:46;102132.22;;;5.61;100.00
31285;BME280;56605;51.516;6.742;2023-04-30T01:43:00;102134.75;;;5.90;100.00
31285;BME280;56605;51.516;6.742;2023-04-30T01:51:02;102140.97;;;5.76;100.00
31285;BME280;56605;51.516;6.742;2023-04-30T01:53:39;102133.19;;;5.60;100.00
31285;BME280;56605;51.516;6.742;2023-04-30T01:56:05;102137.66;;;5.72;100.00
31285;BME280;56605;51.516;6.742;2023-04-30T01:58:34;102145.91;;;5.95;100.00
31285;BME280;56605;51.516;6.742;2023-04-30T02:01:00;102140.03;;;5.90;100.00
31285;BME280;56605;51.516;6.742;2023-04-30T02:12:04;102149.31;;;5.42;100.00
31285;BME280;56605;51.516;6.742;2023-04-30T02:14:30;102154.78;;;5.53;100.00
31285;BME280;56605;51.516;6.742;2023-04-30T02:16:55;102152.69;;;5.71;100.00
31285;BME280;56605;51.516;6.742;2023-04-30T02:19:21;102155.69;;;5.67;100.00
31285;BME280;56605;51.516;6.742;2023-04-30T02:21:46;102155.34;;;5.71;100.00
31285;BME280;56605;51.516;6.742;2023-04-30T02:24:11;102143.47;;;5.64;100.00
31285;BME280;56605;51.516;6.742;2023-04-30T02:26:36;102147.94;;;5.64;100.00
31285;BME280;56605;51.516;6.742;2023-04-30T02:29:02;102147.25;;;5.60;100.00
31285;BME280;56605;51.516;6.742;2023-04-30T02:31:27;102144.19;;;5.53;100.00
31285;BME280;56605;51.516;6.742;2023-04-30T02:33:52;102149.91;;;5.60;100.00
31285;BME280;56605;51.516;6.742;2023-04-30T02:36:18;102147.56;;;5.55;100.00
31285;BME280;56605;51.516;6.742;2023-04-30T02:38:43;102151.47;;;5.50;100.00
31285;BME280;56605;51.516;6.742;2023-04-30T02:41:08;102145.44;;;5.48;100.00
31285;BME280;56605;51.516;6.742;2023-04-30T02:43:33;102145.63;;;5.44;100.00
31285;BME280;56605;51.516;6.742;2023-04-30T02:45:59;102147.31;;;5.45;100.00
31285;BME280;56605;51.516;6.742;2023-04-30T02:48:24;102150.44;;;5.38;100.00
31285;BME280;56605;51.516;6.742;2023-04-30T02:50:49;102147.59;;;5.41;100.00
31285;BME280;56605;51.516;6.742;2023-04-30T02:53:15;102150.06;;;5.44;100.00
31285;BME280;56605;51.516;6.742;2023-04-30T02:55:40;102148.38;;;5.43;100.00
31285;BME280;56605;51.516;6.742;2023-04-30T02:58:05;102145.72;;;5.43;100.00
31285;BME280;56605;51.516;6.742;2023-04-30T03:00:31;102141.38;;;5.27;100.00
31285;BME280;56605;51.516;6.742;2023-04-30T03:02:56;102139.22;;;5.34;100.00
31285;BME280;56605;51.516;6.742;2023-04-30T03:05:21;102142.69;;;5.35;100.00
31285;BME280;56605;51.516;6.742;2023-04-30T03:07:47;102135.41;;;5.38;100.00
31285;BME280;56605;51.516;6.742;2023-04-30T03:10:12;102133.25;;;5.30;100.00
31285;BME280;56605;51.516;6.742;2023-04-30T03:12:37;102133.38;;;5.14;100.00
31285;BME280;56605;51.516;6.742;2023-04-30T03:15:03;102133.41;;;5.00;100.00
31285;BME280;56605;51.516;6.742;2023-04-30T03:17:28;102132.16;;;5.05;100.00
31285;BME280;56605;51.516;6.742;2023-04-30T03:19:54;102136.41;;;5.08;100.00
31285;BME280;56605;51.516;6.742;2023-04-30T03:22:19;102136.03;;;5.14;100.00
31285;BME280;56605;51.516;6.742;2023-04-30T03:24:47;102128.38;;;5.10;100.00
31285;BME280;56605;51.516;6.742;2023-04-30T03:27:12;102135.41;;;5.11;100.00
31285;BME280;56605;51.516;6.742;2023-04-30T03:29:38;102126.50;;;5.12;100.00
31285;BME280;56605;51.516;6.742;2023-04-30T03:32:03;102136.50;;;5.21;100.00
31285;BME280;56605;51.516;6.742;2023-04-30T03:34:29;102142.03;;;5.03;100.00
31285;BME280;56605;51.516;6.742;2023-04-30T03:36:55;102135.19;;;4.99;100.00
31285;BME280;56605;51.516;6.742;2023-04-30T03:39:21;102141.25;;;5.01;100.00
31285;BME280;56605;51.516;6.742;2023-04-30T03:41:46;102144.97;;;4.84;100.00
31285;BME280;56605;51.516;6.742;2023-04-30T03:44:11;102139.25;;;5.05;100.00
31285;BME280;56605;51.516;6.742;2023-04-30T03:46:42;102138.31;;;5.06;100.00
31285;BME280;56605;51.516;6.742;2023-04-30T03:49:08;102142.50;;;4.95;100.00
31285;BME280;56605;51.516;6.742;2023-04-30T03:51:35;102134.28;;;5.00;100.00
31285;BME280;56605;51.516;6.742;2023-04-30T03:54:04;102146.06;;;4.80;100.00
31285;BME280;56605;51.516;6.742;2023-04-30T03:56:30;102149.84;;;4.90;100.00
31285;BME280;56605;51.516;6.742;2023-04-30T03:58:55;102154.47;;;5.16;100.00
31285;BME280;56605;51.516;6.742;2023-04-30T04:01:21;102154.66;;;5.13;100.00
31285;BME280;56605;51.516;6.742;2023-04-30T04:03:46;102155.22;;;5.18;100.00
31285;BME280;56605;51.516;6.742;2023-04-30T04:06:11;102151.47;;;5.07;100.00
31285;BME280;56605;51.516;6.742;2023-04-30T04:08:36;102149.28;;;5.14;100.00
31285;BME280;56605;51.516;6.742;2023-04-30T04:11:02;102155.25;;;5.03;100.00
31285;BME280;56605;51.516;6.742;2023-04-30T04:13:27;102145.50;;;5.04;100.00
31285;BME280;56605;51.516;6.742;2023-04-30T04:15:52;102146.06;;;5.09;100.00
31285;BME280;56605;51.516;6.742;2023-04-30T04:18:17;102148.06;;;4.91;100.00
31285;BME280;56605;51.516;6.742;2023-04-30T04:20:43;102144.75;;;5.02;100.00
31285;BME280;56605;51.516;6.742;2023-04-30T04:23:08;102145.88;;;4.98;100.00
31285;BME280;56605;51.516;6.742;2023-04-30T04:25:33;102141.06;;;5.04;100.00
31285;BME280;56605;51.516;6.742;2023-04-30T04:27:59;102143.63;;;5.06;100.00
31285;BME280;56605;51.516;6.742;2023-04-30T04:30:24;102148.16;;;5.04;100.00
31285;BME280;56605;51.516;6.742;2023-04-30T04:32:50;102150.53;;;4.94;100.00
31285;BME280;56605;51.516;6.742;2023-04-30T04:35:18;102155.91;;;4.92;100.00
31285;BME280;56605;51.516;6.742;2023-04-30T04:37:44;102154.13;;;5.07;100.00
31285;BME280;56605;51.516;6.742;2023-04-30T04:40:10;102157.31;;;5.13;100.00
31285;BME280;56605;51.516;6.742;2023-04-30T04:42:36;102163.38;;;5.15;100.00
31285;BME280;56605;51.516;6.742;2023-04-30T04:45:04;102155.03;;;5.06;100.00
31285;BME280;56605;51.516;6.742;2023-04-30T04:47:30;102155.44;;;5.15;100.00
31285;BME280;56605;51.516;6.742;2023-04-30T04:49:55;102164.69;;;5.22;100.00
31285;BME280;56605;51.516;6.742;2023-04-30T04:52:20;102159.38;;;5.22;100.00
31285;BME280;56605;51.516;6.742;2023-04-30T04:54:46;102161.16;;;5.22;100.00
31285;BME280;56605;51.516;6.742;2023-04-30T04:57:11;102170.31;;;5.30;100.00
31285;BME280;56605;51.516;6.742;2023-04-30T04:59:37;102168.34;;;5.34;100.00
31285;BME280;56605;51.516;6.742;2023-04-30T05:02:02;102164.25;;;5.43;100.00
31285;BME280;56605;51.516;6.742;2023-04-30T05:04:27;102166.53;;;5.49;100.00
31285;BME280;56605;51.516;6.742;2023-04-30T05:06:54;102173.13;;;5.56;100.00
31285;BME280;56605;51.516;6.742;2023-04-30T05:09:19;102164.66;;;5.64;100.00
31285;BME280;56605;51.516;6.742;2023-04-30T05:11:45;102167.19;;;5.66;100.00
31285;BME280;56605;51.516;6.742;2023-04-30T05:14:13;102169.94;;;5.64;100.00
31285;BME280;56605;51.516;6.742;2023-04-30T05:16:38;102174.84;;;5.70;100.00
31285;BME280;56605;51.516;6.742;2023-04-30T05:19:04;102175.00;;;5.82;100.00
31285;BME280;56605;51.516;6.742;2023-04-30T05:21:29;102172.91;;;5.87;100.00
31285;BME280;56605;51.516;6.742;2023-04-30T05:23:56;102169.56;;;5.98;100.00
31285;BME280;56605;51.516;6.742;2023-04-30T05:26:22;102169.63;;;6.11;100.00
31285;BME280;56605;51.516;6.742;2023-04-30T05:28:48;102173.19;;;6.10;100.00
31285;BME280;56605;51.516;6.742;2023-04-30T05:31:14;102183.09;;;6.21;100.00
31285;BME280;56605;51.516;6.742;2023-04-30T05:33:40;102179.72;;;6.32;100.00
31285;BME280;56605;51.516;6.742;2023-04-30T05:36:06;102181.84;;;6.40;100.00
31285;BME280;56605;51.516;6.742;2023-04-30T05:38:31;102180.59;;;6.45;100.00
31285;BME280;56605;51.516;6.742;2023-04-30T05:40:57;102181.78;;;6.54;100.00
31285;BME280;56605;51.516;6.742;2023-04-30T05:43:22;102178.91;;;6.70;100.00
31285;BME280;56605;51.516;6.742;2023-04-30T05:45:47;102187.38;;;6.63;100.00
31285;BME280;56605;51.516;6.742;2023-04-30T05:48:13;102182.19;;;6.74;100.00
31285;BME280;56605;51.516;6.742;2023-04-30T05:50:38;102180.16;;;6.91;100.00
31285;BME280;56605;51.516;6.742;2023-04-30T05:53:03;102175.03;;;7.01;100.00
31285;BME280;56605;51.516;6.742;2023-04-30T05:55:29;102174.78;;;7.17;100.00
31285;BME280;56605;51.516;6.742;2023-04-30T05:57:55;102176.50;;;7.18;100.00
31285;BME280;56605;51.516;6.742;2023-04-30T06:00:20;102172.31;;;7.40;100.00
31285;BME280;56605;51.516;6.742;2023-04-30T06:02:46;102171.97;;;7.44;100.00
31285;BME280;56605;51.516;6.742;2023-04-30T06:05:11;102173.50;;;7.60;100.00
31285;BME280;56605;51.516;6.742;2023-04-30T06:07:36;102179.16;;;7.80;100.00
31285;BME280;56605;51.516;6.742;2023-04-30T06:10:02;102174.28;;;7.73;100.00
31285;BME280;56605;51.516;6.742;2023-04-30T06:12:27;102177.47;;;7.79;100.00
31285;BME280;56605;51.516;6.742;2023-04-30T06:14:53;102168.41;;;7.81;100.00
31285;BME280;56605;51.516;6.742;2023-04-30T06:17:18;102182.94;;;7.89;100.00
31285;BME280;56605;51.516;6.742;2023-04-30T06:19:43;102171.13;;;7.93;100.00
31285;BME280;56605;51.516;6.742;2023-04-30T06:22:09;102175.88;;;8.01;100.00
31285;BME280;56605;51.516;6.742;2023-04-30T06:24:34;102173.88;;;8.16;100.00
31285;BME280;56605;51.516;6.742;2023-04-30T06:27:00;102170.72;;;8.22;100.00
31285;BME280;56605;51.516;6.742;2023-04-30T06:29:25;102170.03;;;8.43;100.00
31285;BME280;56605;51.516;6.742;2023-04-30T06:31:50;102185.53;;;8.37;100.00
31285;BME280;56605;51.516;6.742;2023-04-30T06:34:18;102178.38;;;8.38;100.00
31285;BME280;56605;51.516;6.742;2023-04-30T06:36:43;102168.78;;;8.60;100.00
31285;BME280;56605;51.516;6.742;2023-04-30T06:39:08;102178.13;;;8.66;100.00
31285;BME280;56605;51.516;6.742;2023-04-30T06:41:34;102179.09;;;8.65;100.00
31285;BME280;56605;51.516;6.742;2023-04-30T06:43:59;102187.91;;;8.77;100.00
31285;BME280;56605;51.516;6.742;2023-04-30T06:46:24;102186.84;;;8.79;100.00
31285;BME280;56605;51.516;6.742;2023-04-30T06:48:50;102186.47;;;8.84;100.00
31285;BME280;56605;51.516;6.742;2023-04-30T06:51:15;102183.44;;;8.77;100.00
31285;BME280;56605;51.516;6.742;2023-04-30T06:53:40;102172.06;;;8.86;100.00
31285;BME280;56605;51.516;6.742;2023-04-30T06:56:06;102177.13;;;8.78;100.00
31285;BME280;56605;51.516;6.742;2023-04-30T06:58:37;102179.94;;;8.88;100.00
31285;BME280;56605;51.516;6.742;2023-04-30T07:01:09;102177.16;;;8.90;100.00
31285;BME280;56605;51.516;6.742;2023-04-30T07:03:35;102173.88;;;8.86;100.00
31285;BME280;56605;51.516;6.742;2023-04-30T07:06:00;102169.38;;;9.09;100.00
31285;BME280;56605;51.516;6.742;2023-04-30T07:08:25;102172.50;;;9.49;100.00
31285;BME280;56605;51.516;6.742;2023-04-30T07:10:51;102168.34;;;9.45;100.00
31285;BME280;56605;51.516;6.742;2023-04-30T07:13:16;102161.00;;;9.37;100.00
31285;BME280;56605;51.516;6.742;2023-04-30T07:15:42;102168.75;;;9.40;100.00
31285;BME280;56605;51.516;6.742;2023-04-30T07:18:07;102166.28;;;9.48;100.00
31285;BME280;56605;51.516;6.742;2023-04-30T07:20:34;102167.84;;;9.51;100.00
31285;BME280;56605;51.516;6.742;2023-04-30T07:22:59;102163.00;;;9.56;100.00
31285;BME280;56605;51.516;6.742;2023-04-30T07:25:24;102165.03;;;9.64;100.00
31285;BME280;56605;51.516;6.742;2023-04-30T07:27:50;102159.69;;;9.75;100.00
31285;BME280;56605;51.516;6.742;2023-04-30T07:30:16;102164.03;;;9.76;100.00
31285;BME280;56605;51.516;6.742;2023-04-30T07:32:42;102169.31;;;9.88;100.00
31285;BME280;56605;51.516;6.742;2023-04-30T07:35:08;102171.63;;;10.14;100.00
31285;BME280;56605;51.516;6.742;2023-04-30T07:37:33;102169.47;;;10.29;100.00
31285;BME280;56605;51.516;6.742;2023-04-30T07:39:58;102165.97;;;10.28;100.00
31285;BME280;56605;51.516;6.742;2023-04-30T07:42:24;102176.00;;;10.36;100.00
31285;BME280;56605;51.516;6.742;2023-04-30T07:44:49;102171.22;;;10.40;100.00
31285;BME280;56605;51.516;6.742;2023-04-30T07:47:14;102170.47;;;10.49;100.00
31285;BME280;56605;51.516;6.742;2023-04-30T07:49:40;102175.78;;;10.71;100.00
31285;BME280;56605;51.516;6.742;2023-04-30T07:52:05;102179.34;;;10.81;100.00
31285;BME280;56605;51.516;6.742;2023-04-30T07:54:34;102184.22;;;10.66;100.00
31285;BME280;56605;51.516;6.742;2023-04-30T07:57:01;102173.72;;;10.53;100.00
31285;BME280;56605;51.516;6.742;2023-04-30T07:59:27;102175.59;;;10.62;100.00
31285;BME280;56605;51.516;6.742;2023-04-30T08:01:52;102177.97;;;10.56;100.00
31285;BME280;56605;51.516;6.742;2023-04-30T08:04:18;102184.25;;;10.55;100.00
31285;BME280;56605;51.516;6.742;2023-04-30T08:06:43;102175.16;;;10.88;100.00
31285;BME280;56605;51.516;6.742;2023-04-30T08:09:08;102180.19;;;10.82;100.00
31285;BME280;56605;51.516;6.742;2023-04-30T08:11:34;102172.94;;;10.94;100.00
31285;BME280;56605;51.516;6.742;2023-04-30T08:13:59;102171.31;;;10.81;100.00
31285;BME280;56605;51.516;6.742;2023-04-30T08:16:24;102182.19;;;10.89;100.00
31285;BME280;56605;51.516;6.742;2023-04-30T08:18:50;102174.38;;;11.08;100.00
31285;BME280;56605;51.516;6.742;2023-04-30T08:21:15;102173.41;;;11.09;100.00
31285;BME280;56605;51.516;6.742;2023-04-30T08:23:42;102170.38;;;11.43;100.00
31285;BME280;56605;51.516;6.742;2023-04-30T08:26:07;102174.28;;;11.19;100.00
31285;BME280;56605;51.516;6.742;2023-04-30T08:28:32;102162.66;;;11.50;100.00
31285;BME280;56605;51.516;6.742;2023-04-30T08:30:58;102165.06;;;11.73;100.00
31285;BME280;56605;51.516;6.742;2023-04-30T08:33:23;102165.38;;;11.70;100.00
31285;BME280;56605;51.516;6.742;2023-04-30T08:35:48;102157.16;;;11.41;100.00
31285;BME280;56605;51.516;6.742;2023-04-30T08:38:13;102153.50;;;11.92;100.00
31285;BME280;56605;51.516;6.742;2023-04-30T08:40:39;102164.66;;;13.31;100.00
31285;BME280;56605;51.516;6.742;2023-04-30T08:43:06;102161.34;;;12.91;100.00
31285;BME280;56605;51.516;6.742;2023-04-30T08:45:33;102162.72;;;13.23;100.00
31285;BME280;56605;51.516;6.742;2023-04-30T08:48:00;102171.28;;;13.27;100.00
31285;BME280;56605;51.516;6.742;2023-04-30T08:50:28;102167.28;;;14.14;100.00
31285;BME280;56605;51.516;6.742;2023-04-30T08:52:54;102162.34;;;13.36;100.00
31285;BME280;56605;51.516;6.742;2023-04-30T08:55:20;102159.94;;;13.98;100.00
31285;BME280;56605;51.516;6.742;2023-04-30T08:57:45;102170.09;;;14.83;100.00
31285;BME280;56605;51.516;6.742;2023-04-30T09:00:11;102167.75;;;14.36;100.00
31285;BME280;56605;51.516;6.742;2023-04-30T09:02:40;102163.84;;;14.83;100.00
31285;BME280;56605;51.516;6.742;2023-04-30T09:05:11;102161.06;;;16.11;100.00
31285;BME280;56605;51.516;6.742;2023-04-30T09:07:42;102154.72;;;16.69;93.48
31285;BME280;56605;51.516;6.742;2023-04-30T09:10:18;102146.78;;;14.39;99.41
31285;BME280;56605;51.516;6.742;2023-04-30T09:13:00;102145.84;;;15.27;100.00
31285;BME280;56605;51.516;6.742;2023-04-30T09:15:26;102151.25;;;14.83;100.00
31285;BME280;56605;51.516;6.742;2023-04-30T09:18:14;102150.59;;;14.63;100.00
31285;BME280;56605;51.516;6.742;2023-04-30T09:21:00;102139.75;;;13.93;98.94
31285;BME280;56605;51.516;6.742;2023-04-30T09:23:27;102140.50;;;14.04;100.00
31285;BME280;56605;51.516;6.742;2023-04-30T09:25:52;102147.03;;;13.47;100.00
31285;BME280;56605;51.516;6.742;2023-04-30T09:28:18;102147.22;;;13.63;100.00
31285;BME280;56605;51.516;6.742;2023-04-30T09:30:48;102140.56;;;13.67;100.00
31285;BME280;56605;51.516;6.742;2023-04-30T09:33:13;102133.13;;;12.87;100.00
31285;BME280;56605;51.516;6.742;2023-04-30T09:35:39;102144.59;;;14.35;99.03
31285;BME280;56605;51.516;6.742;2023-04-30T09:38:24;102127.38;;;15.65;98.47
31285;BME280;56605;51.516;6.742;2023-04-30T09:40:50;102128.41;;;15.81;88.42
31285;BME280;56605;51.516;6.742;2023-04-30T09:43:15;102129.66;;;15.10;92.94
31285;BME280;56605;51.516;6.742;2023-04-30T09:45:47;102127.53;;;15.30;90.50
31285;BME280;56605;51.516;6.742;2023-04-30T09:48:21;102124.34;;;15.68;86.65
31285;BME280;56605;51.516;6.742;2023-04-30T09:50:50;102130.81;;;14.64;94.77
31285;BME280;56605;51.516;6.742;2023-04-30T09:53:16;102121.97;;;15.40;90.28
31285;BME280;56605;51.516;6.742;2023-04-30T09:55:46;102119.97;;;15.76;88.13
31285;BME280;56605;51.516;6.742;2023-04-30T09:58:13;102110.88;;;15.43;84.47
31285;BME280;56605;51.516;6.742;2023-04-30T10:00:39;102114.53;;;15.09;88.64
31285;BME280;56605;51.516;6.742;2023-04-30T10:03:11;102104.50;;;15.78;84.69
31285;BME280;56605;51.516;6.742;2023-04-30T10:05:40;102106.19;;;15.79;90.71
31285;BME280;56605;51.516;6.742;2023-04-30T10:08:09;102105.00;;;15.48;90.06
31285;BME280;56605;51.516;6.742;2023-04-30T10:10:37;102107.63;;;15.06;91.74
31285;BME280;56605;51.516;6.742;2023-04-30T10:13:09;102106.19;;;15.45;89.95
31285;BME280;56605;51.516;6.742;2023-04-30T10:15:38;102106.34;;;16.67;85.96
31285;BME280;56605;51.516;6.742;2023-04-30T10:18:27;102103.59;;;15.11;87.35
31285;BME280;56605;51.516;6.742;2023-04-30T10:20:53;102111.91;;;15.67;85.08
31285;BME280;56605;51.516;6.742;2023-04-30T10:23:20;102104.00;;;15.66;83.84
31285;BME280;56605;51.516;6.742;2023-04-30T10:25:46;102094.72;;;16.27;90.08
31285;BME280;56605;51.516;6.742;2023-04-30T10:28:12;102101.97;;;15.84;86.36
31285;BME280;56605;51.516;6.742;2023-04-30T10:30:40;102096.63;;;15.51;91.15
31285;BME280;56605;51.516;6.742;2023-04-30T10:38:19;102093.13;;;16.41;82.04
31285;BME280;56605;51.516;6.742;2023-04-30T10:40:46;102091.88;;;15.53;82.92
31285;BME280;56605;51.516;6.742;2023-04-30T10:43:12;102081.97;;;15.70;80.77
31285;BME280;56605;51.516;6.742;2023-04-30T10:45:41;102076.91;;;16.66;79.37
31285;BME280;56605;51.516;6.742;2023-04-30T10:48:08;102073.88;;;15.95;77.79
31285;BME280;56605;51.516;6.742;2023-04-30T10:50:39;102071.56;;;16.81;75.81
31285;BME280;56605;51.516;6.742;2023-04-30T10:53:06;102066.66;;;15.38;79.09
31285;BME280;56605;51.516;6.742;2023-04-30T10:55:32;102073.38;;;15.42;79.89
31285;BME280;56605;51.516;6.742;2023-04-30T10:57:58;102072.69;;;15.90;80.86
31285;BME280;56605;51.516;6.742;2023-04-30T11:00:25;102068.81;;;15.92;78.58
31285;BME280;56605;51.516;6.742;2023-04-30T11:02:56;102058.03;;;15.92;82.44
31285;BME280;56605;51.516;6.742;2023-04-30T11:05:33;102063.47;;;15.67;80.80
31285;BME280;56605;51.516;6.742;2023-04-30T11:07:59;102048.94;;;16.58;79.23
31285;BME280;56605;51.516;6.742;2023-04-30T11:10:26;102047.78;;;17.93;78.38
31285;BME280;56605;51.516;6.742;2023-04-30T11:12:54;102046.69;;;17.02;74.21
31285;BME280;56605;51.516;6.742;2023-04-30T11:15:41;102044.28;;;16.44;73.82
31285;BME280;56605;51.516;6.742;2023-04-30T11:18:06;102035.22;;;16.37;75.62
31285;BME280;56605;51.516;6.742;2023-04-30T11:20:32;102038.69;;;16.85;74.89
31285;BME280;56605;51.516;6.742;2023-04-30T11:23:08;102041.75;;;15.36;78.23
31285;BME280;56605;51.516;6.742;2023-04-30T11:25:46;102030.97;;;15.77;76.67
31285;BME280;56605;51.516;6.742;2023-04-30T11:28:14;102034.13;;;16.86;76.54
31285;BME280;56605;51.516;6.742;2023-04-30T11:30:49;102034.84;;;18.04;75.53
31285;BME280;56605;51.516;6.742;2023-04-30T11:33:16;102028.19;;;16.27;73.97
31285;BME280;56605;51.516;6.742;2023-04-30T11:35:42;102030.78;;;16.52;72.08
31285;BME280;56605;51.516;6.742;2023-04-30T11:38:08;102028.44;;;17.04;76.04
31285;BME280;56605;51.516;6.742;2023-04-30T11:40:34;102025.16;;;19.99;68.65
31285;BME280;56605;51.516;6.742;2023-04-30T11:43:00;102031.25;;;18.79;66.13
31285;BME280;56605;51.516;6.742;2023-04-30T11:45:25;102023.72;;;18.96;67.98
31285;BME280;56605;51.516;6.742;2023-04-30T11:47:53;102025.31;;;18.68;66.39
31285;BME280;56605;51.516;6.742;2023-04-30T11:50:21;102021.97;;;17.60;68.79
31285;BME280;56605;51.516;6.742;2023-04-30T11:52:52;102021.81;;;17.39;68.02
31285;BME280;56605;51.516;6.742;2023-04-30T11:55:23;102019.19;;;17.84;70.08
31285;BME280;56605;51.516;6.742;2023-04-30T11:57:50;102023.44;;;17.24;70.20
31285;BME280;56605;51.516;6.742;2023-04-30T12:00:19;102012.41;;;19.29;67.23
31285;BME280;56605;51.516;6.742;2023-04-30T12:02:47;102026.66;;;17.97;66.10
31285;BME280;56605;51.516;6.742;2023-04-30T12:05:13;102014.63;;;17.07;67.89
31285;BME280;56605;51.516;6.742;2023-04-30T12:07:50;102018.22;;;17.61;66.43
31285;BME280;56605;51.516;6.742;2023-04-30T12:10:18;102004.81;;;16.19;70.65
31285;BME280;56605;51.516;6.742;2023-04-30T12:12:43;102010.66;;;16.95;68.99
31285;BME280;56605;51.516;6.742;2023-04-30T12:15:16;102010.41;;;17.67;66.60
31285;BME280;56605;51.516;6.742;2023-04-30T12:17:42;102004.06;;;18.50;65.22
31285;BME280;56605;51.516;6.742;2023-04-30T12:20:08;102006.81;;;17.90;63.66
31285;BME280;56605;51.516;6.742;2023-04-30T12:22:34;101993.59;;;18.25;64.32
31285;BME280;56605;51.516;6.742;2023-04-30T12:25:08;101995.84;;;19.17;62.67
31285;BME280;56605;51.516;6.742;2023-04-30T12:27:38;101997.66;;;19.96;59.71
31285;BME280;56605;51.516;6.742;2023-04-30T12:30:08;101990.13;;;21.02;53.56
31285;BME280;56605;51.516;6.742;2023-04-30T12:32:53;101993.19;;;21.87;53.24
31285;BME280;56605;51.516;6.742;2023-04-30T12:35:22;101989.56;;;20.58;58.63
31285;BME280;56605;51.516;6.742;2023-04-30T12:37:49;101983.25;;;19.95;57.10
31285;BME280;56605;51.516;6.742;2023-04-30T12:40:17;101990.69;;;19.51;57.41
31285;BME280;56605;51.516;6.742;2023-04-30T12:42:44;101988.66;;;21.07;53.95
31285;BME280;56605;51.516;6.742;2023-04-30T12:45:11;101986.53;;;18.83;55.26
31285;BME280;56605;51.516;6.742;2023-04-30T12:47:40;101984.28;;;18.12;55.81
31285;BME280;56605;51.516;6.742;2023-04-30T12:50:10;101979.31;;;17.56;62.43
31285;BME280;56605;51.516;6.742;2023-04-30T12:52:39;101981.97;;;19.27;58.92
31285;BME280;56605;51.516;6.742;2023-04-30T12:55:18;101980.53;;;19.88;57.21
31285;BME280;56605;51.516;6.742;2023-04-30T12:58:04;101982.13;;;19.47;56.15
31285;BME280;56605;51.516;6.742;2023-04-30T13:00:45;101967.44;;;19.63;56.34
31285;BME280;56605;51.516;6.742;2023-04-30T13:03:11;101974.09;;;18.88;58.01
31285;BME280;56605;51.516;6.742;2023-04-30T13:05:38;101969.81;;;19.73;55.97
31285;BME280;56605;51.516;6.742;2023-04-30T13:08:04;101972.97;;;17.64;59.65
31285;BME280;56605;51.516;6.742;2023-04-30T13:10:31;101973.72;;;17.72;60.76
31285;BME280;56605;51.516;6.742;2023-04-30T13:12:56;101965.88;;;17.47;61.99
31285;BME280;56605;51.516;6.742;2023-04-30T13:15:22;101952.38;;;19.25;58.00